createdAt,value
2022-09-15T00:00:01.187Z,73.50
2022-09-15T00:02:27.873Z,73.60
2022-09-15T00:04:54.545Z,73.60
2022-09-15T00:07:21.161Z,73.60
2022-09-15T00:09:47.761Z,73.60
2022-09-15T00:12:14.415Z,73.60
2022-09-15T00:14:41.288Z,73.50
2022-09-15T00:17:08.024Z,73.40
2022-09-15T00:19:34.711Z,73.30
2022-09-15T00:22:01.743Z,73.30
2022-09-15T00:24:28.354Z,73.20
2022-09-15T00:26:55.206Z,73.10
2022-09-15T00:29:21.900Z,73.10
2022-09-15T00:31:48.541Z,73.20
2022-09-15T00:34:16.165Z,73.20
2022-09-15T00:36:42.830Z,73.20
2022-09-15T00:39:09.478Z,73.30
2022-09-15T00:41:38.283Z,73.30
2022-09-15T00:44:26.493Z,73.40
2022-09-15T00:47:17.839Z,73.40
2022-09-15T00:49:44.544Z,73.40
2022-09-15T00:52:42.508Z,73.50
2022-09-15T00:55:13.804Z,73.30
2022-09-15T00:58:11.829Z,73.40
2022-09-15T01:00:55.507Z,73.40
2022-09-15T01:03:24.218Z,73.30
2022-09-15T01:06:02.225Z,73.40
2022-09-15T01:08:34.562Z,73.30
2022-09-15T01:11:02.616Z,73.30
2022-09-15T01:13:32.527Z,73.40
2022-09-15T01:16:20.205Z,73.30
2022-09-15T01:19:07.923Z,73.30
2022-09-15T01:22:12.450Z,73.20
2022-09-15T01:25:05.849Z,73.20
2022-09-15T01:27:58.676Z,73.30
2022-09-15T01:30:25.916Z,73.50
2022-09-15T01:33:04.920Z,73.40
2022-09-15T01:35:35.016Z,73.40
2022-09-15T01:38:08.772Z,73.50
2022-09-15T01:40:44.170Z,73.50
2022-09-15T01:43:12.696Z,73.60
2022-09-15T01:45:43.730Z,73.70
2022-09-15T01:48:11.633Z,74.00
2022-09-15T01:50:46.575Z,74.00
2022-09-15T01:53:17.884Z,74.20
2022-09-15T01:55:58.140Z,74.20
2022-09-15T01:58:24.837Z,74.40
2022-09-15T02:01:14.147Z,74.50
2022-09-15T02:03:51.498Z,74.50
2022-09-15T02:06:29.641Z,74.60
2022-09-15T02:09:02.760Z,74.60
2022-09-15T02:11:30.354Z,74.70
2022-09-15T02:14:14.285Z,74.80
2022-09-15T02:16:46.535Z,74.80
2022-09-15T02:19:25.964Z,74.80
2022-09-15T02:22:12.544Z,74.80
2022-09-15T02:24:43.961Z,74.60
2022-09-15T02:27:15.581Z,74.60
2022-09-15T02:29:47.052Z,74.60
2022-09-15T02:32:17.562Z,74.60
2022-09-15T02:34:47.794Z,74.60
2022-09-15T02:37:15.012Z,74.60
2022-09-15T02:39:49.095Z,74.60
2022-09-15T02:42:30.618Z,74.60
2022-09-15T02:44:57.993Z,74.80
2022-09-15T02:47:25.255Z,74.70
2022-09-15T02:49:51.924Z,74.70
2022-09-15T02:52:18.592Z,74.70
2022-09-15T02:54:45.631Z,74.70
2022-09-15T02:57:14.185Z,74.80
2022-09-15T02:59:59.404Z,74.80
2022-09-15T03:02:26.742Z,74.80
2022-09-15T03:04:53.459Z,74.90
2022-09-15T03:07:20.263Z,74.90
2022-09-15T03:09:47.235Z,74.90
2022-09-15T03:12:13.906Z,74.90
2022-09-15T03:14:40.513Z,74.90
2022-09-15T03:17:07.109Z,75.00
2022-09-15T03:19:33.722Z,75.00
2022-09-15T03:22:00.381Z,75.10
2022-09-15T03:24:27.069Z,75.10
2022-09-15T03:26:53.666Z,75.10
2022-09-15T03:29:20.363Z,75.10
2022-09-15T03:31:47.314Z,75.00
2022-09-15T03:34:13.971Z,75.10
2022-09-15T03:36:41.177Z,75.90
2022-09-15T03:39:07.838Z,75.10
2022-09-15T03:41:34.457Z,75.20
2022-09-15T03:44:01.155Z,75.10
2022-09-15T03:46:27.884Z,75.20
2022-09-15T03:48:54.514Z,76.00
2022-09-15T03:51:22.013Z,75.20
2022-09-15T03:53:48.643Z,75.20
2022-09-15T03:56:25.938Z,75.20
2022-09-15T03:58:53.360Z,75.30
2022-09-15T04:01:21.198Z,75.30
2022-09-15T04:03:51.076Z,75.40
2022-09-15T04:06:19.546Z,75.40
2022-09-15T04:08:46.347Z,75.40
2022-09-15T04:11:14.006Z,75.40
2022-09-15T04:13:41.945Z,75.50
2022-09-15T04:16:17.701Z,75.40
2022-09-15T04:18:45.288Z,75.40
2022-09-15T04:21:14.913Z,75.40
2022-09-15T04:23:42.350Z,75.30
2022-09-15T04:26:36.289Z,75.30
2022-09-15T04:29:05.157Z,75.30
2022-09-15T04:31:33.427Z,75.30
2022-09-15T04:34:00.198Z,75.30
2022-09-15T04:36:28.369Z,75.20
2022-09-15T04:38:55.974Z,75.20
2022-09-15T04:41:23.017Z,75.00
2022-09-15T04:43:49.765Z,75.00
2022-09-15T04:46:18.171Z,75.00
2022-09-15T04:48:46.171Z,74.90
2022-09-15T04:51:15.810Z,74.80
2022-09-15T04:53:42.880Z,74.80
2022-09-15T04:56:12.297Z,74.80
2022-09-15T04:58:42.162Z,75.50
2022-09-15T05:01:09.924Z,74.60
2022-09-15T05:03:37.718Z,74.40
2022-09-15T05:06:06.207Z,74.30
2022-09-15T05:08:32.883Z,74.30
2022-09-15T05:11:01.148Z,74.30
2022-09-15T05:13:28.066Z,74.20
2022-09-15T05:15:54.788Z,74.00
2022-09-15T05:18:22.187Z,74.00
2022-09-15T05:20:48.887Z,73.90
2022-09-15T05:23:15.664Z,73.80
2022-09-15T05:25:42.299Z,73.60
2022-09-15T05:28:08.919Z,73.50
2022-09-15T05:30:43.649Z,73.30
2022-09-15T05:33:11.006Z,73.30
2022-09-15T05:35:37.633Z,73.40
2022-09-15T05:38:04.419Z,73.50
2022-09-15T05:40:32.929Z,73.40
2022-09-15T05:42:59.582Z,73.50
2022-09-15T05:45:26.202Z,73.50
2022-09-15T05:47:52.828Z,73.50
2022-09-15T05:50:19.554Z,73.50
2022-09-15T05:52:51.619Z,73.50
2022-09-15T05:55:18.408Z,73.50
2022-09-15T05:57:45.054Z,73.50
2022-09-15T06:00:12.497Z,73.40
2022-09-15T06:02:39.246Z,73.40
2022-09-15T06:05:06.263Z,73.20
2022-09-15T06:07:32.965Z,72.90
2022-09-15T06:09:59.765Z,72.70
2022-09-15T06:12:27.449Z,72.60
2022-09-15T06:14:54.088Z,72.40
2022-09-15T06:17:23.057Z,72.30
2022-09-15T06:19:49.819Z,72.40
2022-09-15T06:22:16.581Z,72.30
2022-09-15T06:24:43.206Z,72.10
2022-09-15T06:27:09.844Z,72.10
2022-09-15T06:29:36.959Z,72.00
2022-09-15T06:32:05.046Z,72.00
2022-09-15T06:34:35.341Z,72.00
2022-09-15T06:37:01.968Z,71.70
2022-09-15T06:39:28.905Z,71.70
2022-09-15T06:42:04.795Z,71.70
2022-09-15T06:44:32.424Z,71.50
2022-09-15T06:46:59.106Z,71.50
2022-09-15T06:49:25.993Z,71.40
2022-09-15T06:51:52.648Z,71.20
2022-09-15T06:54:19.444Z,71.30
2022-09-15T06:56:47.258Z,71.30
2022-09-15T06:59:15.846Z,71.40
2022-09-15T07:01:43.082Z,71.40
2022-09-15T07:04:10.137Z,71.60
2022-09-15T07:06:39.092Z,71.90
2022-09-15T07:09:06.772Z,71.90
2022-09-15T07:11:33.908Z,71.50
2022-09-15T07:14:00.559Z,71.20
2022-09-15T07:16:27.692Z,71.20
2022-09-15T07:18:57.090Z,71.10
2022-09-15T07:21:24.617Z,71.10
2022-09-15T07:23:51.523Z,71.00
2022-09-15T07:26:29.662Z,70.70
2022-09-15T07:29:04.910Z,70.60
2022-09-15T07:31:33.830Z,70.40
2022-09-15T07:34:01.390Z,70.30
2022-09-15T07:36:28.845Z,70.10
2022-09-15T07:38:55.503Z,70.10
2022-09-15T07:41:24.622Z,70.10
2022-09-15T07:43:53.421Z,69.80
2022-09-15T07:46:22.124Z,69.80
2022-09-15T07:48:50.895Z,69.70
2022-09-15T07:51:18.235Z,69.80
2022-09-15T07:53:46.898Z,69.70
2022-09-15T07:56:14.469Z,69.60
2022-09-15T07:58:41.135Z,69.60
2022-09-15T08:01:12.655Z,69.70
2022-09-15T08:03:42.700Z,69.40
2022-09-15T08:06:10.120Z,69.50
2022-09-15T08:08:38.813Z,69.20
2022-09-15T08:11:09.770Z,69.00
2022-09-15T08:13:36.893Z,68.90
2022-09-15T08:16:08.935Z,69.00
2022-09-15T08:18:36.300Z,69.00
2022-09-15T08:21:07.019Z,69.20
2022-09-15T08:23:33.874Z,69.30
2022-09-15T08:26:00.806Z,69.30
2022-09-15T08:28:27.723Z,69.10
2022-09-15T08:31:02.205Z,68.90
2022-09-15T08:33:29.242Z,68.70
2022-09-15T08:36:01.476Z,68.60
2022-09-15T08:38:28.333Z,68.60
2022-09-15T08:41:05.490Z,68.40
2022-09-15T08:43:40.883Z,67.90
2022-09-15T08:46:14.937Z,67.80
2022-09-15T08:48:52.930Z,67.20
2022-09-15T08:51:28.430Z,67.00
2022-09-15T08:54:03.039Z,67.10
2022-09-15T08:56:30.415Z,66.90
2022-09-15T08:58:57.209Z,66.80
2022-09-15T09:01:40.972Z,66.50
2022-09-15T09:04:35.450Z,66.10
2022-09-15T09:07:02.032Z,66.10
2022-09-15T09:09:32.578Z,66.60
2022-09-15T09:12:20.897Z,66.80
2022-09-15T09:14:56.351Z,66.80
2022-09-15T09:17:49.658Z,66.80
2022-09-15T09:20:29.516Z,67.00
2022-09-15T09:22:59.987Z,67.00
2022-09-15T09:25:28.165Z,67.40
2022-09-15T09:27:58.121Z,67.80
2022-09-15T09:30:27.655Z,67.80
2022-09-15T09:33:04.366Z,67.80
2022-09-15T09:35:43.002Z,68.60
2022-09-15T09:38:11.262Z,67.60
2022-09-15T09:40:41.355Z,67.70
2022-09-15T09:43:08.793Z,67.50
2022-09-15T09:45:35.525Z,67.40
2022-09-15T09:48:26.853Z,67.10
2022-09-15T09:50:54.929Z,66.80
2022-09-15T09:53:29.873Z,66.80
2022-09-15T09:56:16.987Z,66.60
2022-09-15T09:58:44.890Z,66.50
2022-09-15T10:01:14.779Z,66.20
2022-09-15T10:03:43.321Z,66.00
2022-09-15T10:06:20.590Z,65.90
2022-09-15T10:08:59.925Z,65.50
2022-09-15T10:12:00.432Z,65.00
2022-09-15T10:14:30.076Z,63.90
2022-09-15T10:17:15.415Z,63.60
2022-09-15T10:19:56.005Z,62.50
2022-09-15T10:22:35.510Z,62.30
2022-09-15T10:25:23.164Z,62.10
2022-09-15T10:28:08.235Z,62.00
2022-09-15T10:30:36.188Z,61.30
2022-09-15T10:33:26.863Z,60.80
2022-09-15T10:35:59.352Z,62.00
2022-09-15T10:38:39.345Z,61.30
2022-09-15T10:41:21.854Z,61.60
2022-09-15T10:44:11.477Z,61.40
2022-09-15T10:47:08.756Z,61.10
2022-09-15T10:50:16.862Z,60.20
2022-09-15T10:52:46.233Z,59.60
2022-09-15T10:55:52.837Z,59.90
2022-09-15T10:58:52.007Z,59.20
2022-09-15T11:01:29.838Z,59.20
2022-09-15T11:04:00.174Z,59.50
2022-09-15T11:06:45.672Z,59.40
2022-09-15T11:09:15.024Z,58.60
2022-09-15T11:12:08.396Z,58.90
2022-09-15T11:14:53.883Z,58.40
2022-09-15T11:17:43.411Z,58.50
2022-09-15T11:20:36.161Z,58.40
2022-09-15T11:23:36.161Z,57.30
2022-09-15T11:26:19.639Z,56.40
2022-09-15T11:28:54.025Z,56.00
2022-09-15T11:31:27.635Z,56.60
2022-09-15T11:34:07.018Z,56.00
2022-09-15T11:36:41.871Z,55.60
2022-09-15T11:39:26.260Z,55.60
2022-09-15T11:42:05.528Z,55.10
2022-09-15T11:44:43.700Z,55.10
2022-09-15T11:47:41.526Z,53.90
2022-09-15T11:50:10.888Z,53.50
2022-09-15T11:52:56.473Z,53.80
2022-09-15T11:55:23.159Z,52.80
2022-09-15T11:58:22.490Z,53.60
2022-09-15T12:01:14.037Z,52.50
2022-09-15T12:03:40.597Z,51.90
2022-09-15T12:06:15.017Z,52.40
2022-09-15T12:08:56.515Z,52.50
2022-09-15T12:11:26.541Z,51.20
2022-09-15T12:13:55.805Z,51.30
2022-09-15T12:16:23.586Z,51.00
2022-09-15T12:19:03.077Z,50.60
2022-09-15T12:21:48.370Z,50.60
2022-09-15T12:24:43.875Z,50.30
2022-09-15T12:27:19.075Z,50.40
2022-09-15T12:30:06.401Z,50.40
2022-09-15T12:32:34.979Z,49.30
2022-09-15T12:35:17.580Z,49.00
2022-09-15T12:37:52.370Z,48.70
2022-09-15T12:40:35.713Z,48.70
2022-09-15T12:43:11.632Z,48.70
2022-09-15T12:45:39.808Z,48.80
2022-09-15T12:48:22.217Z,48.70
2022-09-15T12:51:05.329Z,48.80
2022-09-15T12:53:39.592Z,49.20
2022-09-15T12:56:11.664Z,50.80
2022-09-15T12:58:47.339Z,50.40
2022-09-15T13:01:22.745Z,50.80
2022-09-15T13:03:49.564Z,50.40
2022-09-15T13:06:34.230Z,49.70
2022-09-15T13:09:05.096Z,49.50
2022-09-15T13:11:40.114Z,49.00
2022-09-15T13:14:23.269Z,49.30
2022-09-15T13:16:56.634Z,49.60
2022-09-15T13:19:25.818Z,50.10
2022-09-15T13:22:01.457Z,50.80
2022-09-15T13:24:38.093Z,51.40
2022-09-15T13:27:07.503Z,51.90
2022-09-15T13:29:48.747Z,52.20
2022-09-15T13:32:29.630Z,52.70
2022-09-15T13:35:34.710Z,53.20
2022-09-15T13:38:06.915Z,53.80
2022-09-15T13:41:05.295Z,54.30
2022-09-15T13:44:04.418Z,54.80
2022-09-15T13:46:41.523Z,54.90
2022-09-15T13:49:32.076Z,55.20
2022-09-15T13:52:22.438Z,55.60
2022-09-15T13:55:07.286Z,55.60
2022-09-15T14:00:31.522Z,55.90
2022-09-15T14:03:02.823Z,56.30
2022-09-15T14:05:34.084Z,56.80
2022-09-15T14:08:22.389Z,56.50
2022-09-15T14:10:55.006Z,55.30
2022-09-15T14:13:24.698Z,54.60
2022-09-15T14:16:00.544Z,54.10
2022-09-15T14:18:28.234Z,53.60
2022-09-15T14:21:02.337Z,53.50
2022-09-15T14:23:29.817Z,53.80
2022-09-15T14:26:01.577Z,53.80
2022-09-15T14:28:32.587Z,53.90
2022-09-15T14:31:01.177Z,54.50
2022-09-15T14:33:37.871Z,54.20
2022-09-15T14:36:22.591Z,53.00
2022-09-15T14:39:11.111Z,52.40
2022-09-15T14:41:39.019Z,51.80
2022-09-15T14:47:28.611Z,51.70
2022-09-15T14:50:19.651Z,52.30
2022-09-15T14:53:07.146Z,51.20
2022-09-15T14:55:39.764Z,51.50
2022-09-15T14:58:19.791Z,51.10
2022-09-15T15:01:03.359Z,50.40
2022-09-15T15:03:46.402Z,50.50
2022-09-15T15:06:29.163Z,50.50
2022-09-15T15:09:16.679Z,50.70
2022-09-15T15:11:43.692Z,50.60
2022-09-15T15:14:13.133Z,50.90
2022-09-15T15:16:52.241Z,50.80
2022-09-15T15:19:39.707Z,50.50
2022-09-15T15:22:13.124Z,50.80
2022-09-15T15:24:42.804Z,51.20
2022-09-15T15:27:34.381Z,52.30
2022-09-15T15:30:23.839Z,51.00
2022-09-15T15:32:50.834Z,51.30
2022-09-15T15:35:18.210Z,51.60
2022-09-15T15:37:45.545Z,51.80
2022-09-15T15:40:19.007Z,51.80
2022-09-15T15:43:26.206Z,52.10
2022-09-15T15:46:05.117Z,52.00
2022-09-15T15:48:37.852Z,52.40
2022-09-15T15:51:06.741Z,52.60
2022-09-15T15:53:34.357Z,52.70
2022-09-15T15:56:01.494Z,52.80
2022-09-15T15:58:28.312Z,53.00
2022-09-15T16:00:56.751Z,53.20
2022-09-15T16:03:24.806Z,53.40
2022-09-15T16:05:58.078Z,52.90
2022-09-15T16:08:29.349Z,52.40
2022-09-15T16:10:56.958Z,52.60
2022-09-15T16:13:24.739Z,52.40
2022-09-15T16:15:53.806Z,52.60
2022-09-15T16:18:21.390Z,52.80
2022-09-15T16:20:48.151Z,52.80
2022-09-15T16:23:17.648Z,52.90
2022-09-15T16:25:56.404Z,53.10
2022-09-15T16:28:23.098Z,53.30
2022-09-15T16:30:49.833Z,53.50
2022-09-15T16:33:18.539Z,53.80
2022-09-15T16:35:51.064Z,54.20
2022-09-15T16:38:20.008Z,54.50
2022-09-15T16:40:51.085Z,54.90
2022-09-15T16:43:20.840Z,55.00
2022-09-15T16:45:48.661Z,55.00
2022-09-15T16:48:15.470Z,55.00
2022-09-15T16:51:01.240Z,55.10
2022-09-15T16:53:31.011Z,55.50
2022-09-15T16:55:57.864Z,55.80
2022-09-15T16:58:24.514Z,56.00
2022-09-15T17:00:52.855Z,56.00
2022-09-15T17:03:21.860Z,56.30
2022-09-15T17:05:56.341Z,56.40
2022-09-15T17:08:27.152Z,56.30
2022-09-15T17:10:59.542Z,56.30
2022-09-15T17:13:30.324Z,56.20
2022-09-15T17:15:58.235Z,56.30
2022-09-15T17:18:25.034Z,57.40
2022-09-15T17:20:52.067Z,56.70
2022-09-15T17:23:24.886Z,57.00
2022-09-15T17:25:58.296Z,57.40
2022-09-15T17:28:28.771Z,57.60
2022-09-15T17:31:10.770Z,58.00
2022-09-15T17:33:37.854Z,58.30
2022-09-15T17:36:04.836Z,58.40
2022-09-15T17:38:31.908Z,58.60
2022-09-15T17:40:58.744Z,58.90
2022-09-15T17:43:27.610Z,59.00
2022-09-15T17:45:54.772Z,59.30
2022-09-15T17:48:22.508Z,59.40
2022-09-15T17:50:49.713Z,59.70
2022-09-15T17:53:17.793Z,59.90
2022-09-15T17:55:44.595Z,60.00
2022-09-15T17:58:11.532Z,60.20
2022-09-15T18:00:39.988Z,60.30
2022-09-15T18:03:35.027Z,60.50
2022-09-15T18:06:06.273Z,60.50
2022-09-15T18:08:33.813Z,61.40
2022-09-15T18:11:01.563Z,60.70
2022-09-15T18:13:29.914Z,60.80
2022-09-15T18:15:57.214Z,61.10
2022-09-15T18:18:26.514Z,62.10
2022-09-15T18:20:55.283Z,63.30
2022-09-15T18:23:24.217Z,64.10
2022-09-15T18:25:51.191Z,65.10
2022-09-15T18:28:18.620Z,65.90
2022-09-15T18:30:50.186Z,66.60
2022-09-15T18:33:25.314Z,67.00
2022-09-15T18:35:54.380Z,67.80
2022-09-15T18:38:21.911Z,68.10
2022-09-15T18:40:53.210Z,69.30
2022-09-15T18:43:21.095Z,68.90
2022-09-15T18:45:48.235Z,69.30
2022-09-15T18:48:15.181Z,69.40
2022-09-15T18:50:43.552Z,69.50
2022-09-15T18:53:10.613Z,69.70
2022-09-15T18:55:39.859Z,70.00
2022-09-15T18:58:06.707Z,70.10
2022-09-15T19:00:33.406Z,70.30
2022-09-15T19:03:01.893Z,70.40
2022-09-15T19:05:29.857Z,70.60
2022-09-15T19:07:56.842Z,70.70
2022-09-15T19:10:25.320Z,70.90
2022-09-15T19:12:51.975Z,71.00
2022-09-15T19:15:23.761Z,71.10
2022-09-15T19:17:51.007Z,71.00
2022-09-15T19:20:17.725Z,71.20
2022-09-15T19:22:44.439Z,71.50
2022-09-15T19:25:12.258Z,71.90
2022-09-15T19:27:39.605Z,71.90
2022-09-15T19:30:09.901Z,72.00
2022-09-15T19:32:37.019Z,72.10
2022-09-15T19:35:04.493Z,72.70
2022-09-15T19:37:31.265Z,72.20
2022-09-15T19:39:57.997Z,72.30
2022-09-15T19:42:24.842Z,72.40
2022-09-15T19:44:51.760Z,72.80
2022-09-15T19:47:18.571Z,72.70
2022-09-15T19:49:45.227Z,72.70
2022-09-15T19:52:12.771Z,73.00
2022-09-15T19:54:39.562Z,73.10
2022-09-15T19:57:06.336Z,73.20
2022-09-15T19:59:33.147Z,73.20
2022-09-15T20:02:00.742Z,73.30
2022-09-15T20:04:28.554Z,73.30
2022-09-15T20:06:55.376Z,73.30
2022-09-15T20:09:22.317Z,73.40
2022-09-15T20:11:49.048Z,73.40
2022-09-15T20:14:15.907Z,73.60
2022-09-15T20:16:42.601Z,73.40
2022-09-15T20:19:09.384Z,73.50
2022-09-15T20:21:53.006Z,73.30
2022-09-15T20:24:21.723Z,73.40
2022-09-15T20:26:48.607Z,73.70
2022-09-15T20:29:15.766Z,73.60
2022-09-15T20:31:43.296Z,73.70
2022-09-15T20:34:10.004Z,73.70
2022-09-15T20:36:38.693Z,73.80
2022-09-15T20:39:10.410Z,73.90
2022-09-15T20:41:37.459Z,74.00
2022-09-15T20:44:05.918Z,74.20
2022-09-15T20:46:33.440Z,74.30
2022-09-15T20:49:00.068Z,74.20
2022-09-15T20:51:31.479Z,74.50
2022-09-15T20:53:59.913Z,74.60
2022-09-15T20:56:29.334Z,74.60
2022-09-15T20:58:59.434Z,74.70
2022-09-15T21:01:28.855Z,74.80
2022-09-15T21:03:55.802Z,74.80
2022-09-15T21:06:24.849Z,74.80
2022-09-15T21:08:51.973Z,74.90
2022-09-15T21:11:20.205Z,74.80
2022-09-15T21:13:48.086Z,74.80
2022-09-15T21:16:18.454Z,74.70
2022-09-15T21:18:46.047Z,74.80
2022-09-15T21:21:16.137Z,74.90
2022-09-15T21:23:48.842Z,74.90
2022-09-15T21:26:24.091Z,75.00
2022-09-15T21:28:51.332Z,75.10
2022-09-15T21:31:21.183Z,75.00
2022-09-15T21:33:48.849Z,74.90
2022-09-15T21:36:22.068Z,74.80
2022-09-15T21:38:50.037Z,74.70
2022-09-15T21:41:20.808Z,74.60
2022-09-15T21:43:48.646Z,74.60
2022-09-15T21:46:19.991Z,74.50
2022-09-15T21:48:48.005Z,74.40
2022-09-15T21:51:23.968Z,74.50
2022-09-15T21:53:55.640Z,74.40
2022-09-15T21:56:22.972Z,75.00
2022-09-15T21:58:49.820Z,75.20
2022-09-15T22:01:29.091Z,75.40
2022-09-15T22:03:58.625Z,76.30
2022-09-15T22:06:30.073Z,75.70
2022-09-15T22:08:57.023Z,75.70
2022-09-15T22:11:24.067Z,75.80
2022-09-15T22:13:50.847Z,75.80
2022-09-15T22:16:20.065Z,75.70
2022-09-15T22:18:47.548Z,75.90
2022-09-15T22:21:17.333Z,75.80
2022-09-15T22:23:45.785Z,75.80
2022-09-15T22:26:17.852Z,75.90
2022-09-15T22:28:44.985Z,75.80
2022-09-15T22:31:13.571Z,75.70
2022-09-15T22:33:42.245Z,75.60
2022-09-15T22:36:14.398Z,75.70
2022-09-15T22:38:41.333Z,76.60
2022-09-15T22:41:10.074Z,76.00
2022-09-15T22:43:36.776Z,76.00
2022-09-15T22:46:03.981Z,76.10
2022-09-15T22:48:30.798Z,76.30
2022-09-15T22:50:58.092Z,76.20
2022-09-15T22:53:25.424Z,76.30
2022-09-15T22:55:53.484Z,76.30
2022-09-15T22:58:20.131Z,76.40
2022-09-15T23:00:46.869Z,76.30
2022-09-15T23:03:13.628Z,76.30
2022-09-15T23:05:40.337Z,76.40
2022-09-15T23:08:08.498Z,76.30
2022-09-15T23:10:35.111Z,76.30
2022-09-15T23:13:01.756Z,76.30
2022-09-15T23:15:28.753Z,76.40
2022-09-15T23:17:55.403Z,76.40
2022-09-15T23:20:22.024Z,76.50
2022-09-15T23:22:48.690Z,76.70
2022-09-15T23:25:15.353Z,76.80
2022-09-15T23:27:42.000Z,76.80
2022-09-15T23:30:09.359Z,76.80
2022-09-15T23:32:36.934Z,76.70
2022-09-15T23:35:03.692Z,76.60
2022-09-15T23:37:30.310Z,76.70
2022-09-15T23:39:57.215Z,76.60
2022-09-15T23:42:23.940Z,76.60
2022-09-15T23:44:50.565Z,76.80
2022-09-15T23:47:17.292Z,76.80
2022-09-15T23:49:43.934Z,76.80
2022-09-15T23:52:10.573Z,76.90
2022-09-15T23:54:37.187Z,76.90
2022-09-15T23:57:04.282Z,76.80
2022-09-15T23:59:30.990Z,76.80
